sensor_id;sensor_type;location;lat;lon;timestamp;P1;durP1;ratioP1;P2;durP2;ratioP2
51260;SDS011;61705;46.228;24.812;2022-10-30T00:00:42;47.13;;;23.60;;
51260;SDS011;61705;46.228;24.812;2022-10-30T00:03:10;48.28;;;23.95;;
51260;SDS011;61705;46.228;24.812;2022-10-30T00:05:41;45.83;;;24.15;;
51260;SDS011;61705;46.228;24.812;2022-10-30T00:08:10;48.90;;;24.35;;
51260;SDS011;61705;46.228;24.812;2022-10-30T00:10:38;45.10;;;23.67;;
51260;SDS011;61705;46.228;24.812;2022-10-30T00:13:05;50.03;;;23.80;;
51260;SDS011;61705;46.228;24.812;2022-10-30T00:15:33;53.10;;;24.75;;
51260;SDS011;61705;46.228;24.812;2022-10-30T00:18:00;46.88;;;25.85;;
51260;SDS011;61705;46.228;24.812;2022-10-30T00:20:27;45.45;;;23.17;;
51260;SDS011;61705;46.228;24.812;2022-10-30T00:22:54;45.08;;;23.48;;
51260;SDS011;61705;46.228;24.812;2022-10-30T00:25:22;45.97;;;23.10;;
51260;SDS011;61705;46.228;24.812;2022-10-30T00:27:49;48.45;;;23.77;;
51260;SDS011;61705;46.228;24.812;2022-10-30T00:30:16;48.55;;;23.33;;
51260;SDS011;61705;46.228;24.812;2022-10-30T00:32:44;50.30;;;25.23;;
51260;SDS011;61705;46.228;24.812;2022-10-30T00:35:10;43.60;;;23.27;;
51260;SDS011;61705;46.228;24.812;2022-10-30T00:37:40;46.60;;;22.95;;
51260;SDS011;61705;46.228;24.812;2022-10-30T00:40:08;45.58;;;22.95;;
51260;SDS011;61705;46.228;24.812;2022-10-30T00:42:40;50.10;;;23.42;;
51260;SDS011;61705;46.228;24.812;2022-10-30T00:45:09;51.15;;;22.92;;
51260;SDS011;61705;46.228;24.812;2022-10-30T00:47:38;51.58;;;22.88;;
51260;SDS011;61705;46.228;24.812;2022-10-30T00:52:56;49.60;;;20.52;;
51260;SDS011;61705;46.228;24.812;2022-10-30T00:58:38;47.80;;;19.70;;
51260;SDS011;61705;46.228;24.812;2022-10-30T01:01:13;62.75;;;19.27;;
51260;SDS011;61705;46.228;24.812;2022-10-30T01:03:45;41.35;;;19.77;;
51260;SDS011;61705;46.228;24.812;2022-10-30T01:06:17;38.17;;;18.92;;
51260;SDS011;61705;46.228;24.812;2022-10-30T01:08:44;40.38;;;19.33;;
51260;SDS011;61705;46.228;24.812;2022-10-30T01:11:11;41.40;;;18.02;;
51260;SDS011;61705;46.228;24.812;2022-10-30T01:13:40;41.42;;;18.65;;
51260;SDS011;61705;46.228;24.812;2022-10-30T01:21:40;59.80;;;20.17;;
51260;SDS011;61705;46.228;24.812;2022-10-30T01:37:47;47.30;;;19.75;;
51260;SDS011;61705;46.228;24.812;2022-10-30T01:40:23;72.13;;;20.67;;
51260;SDS011;61705;46.228;24.812;2022-10-30T01:42:50;59.63;;;19.98;;
51260;SDS011;61705;46.228;24.812;2022-10-30T01:53:45;42.53;;;16.83;;
51260;SDS011;61705;46.228;24.812;2022-10-30T01:58:57;45.97;;;15.88;;
51260;SDS011;61705;46.228;24.812;2022-10-30T02:01:32;39.58;;;16.67;;
51260;SDS011;61705;46.228;24.812;2022-10-30T02:04:01;51.28;;;16.40;;
51260;SDS011;61705;46.228;24.812;2022-10-30T02:06:34;42.30;;;15.02;;
51260;SDS011;61705;46.228;24.812;2022-10-30T02:09:01;45.40;;;15.38;;
51260;SDS011;61705;46.228;24.812;2022-10-30T02:11:29;46.58;;;15.20;;
51260;SDS011;61705;46.228;24.812;2022-10-30T02:13:58;38.35;;;14.18;;
51260;SDS011;61705;46.228;24.812;2022-10-30T02:16:28;55.33;;;14.38;;
51260;SDS011;61705;46.228;24.812;2022-10-30T02:18:55;43.55;;;14.13;;
51260;SDS011;61705;46.228;24.812;2022-10-30T02:21:22;45.20;;;14.27;;
51260;SDS011;61705;46.228;24.812;2022-10-30T02:23:49;50.55;;;13.80;;
51260;SDS011;61705;46.228;24.812;2022-10-30T02:26:15;25.60;;;12.10;;
51260;SDS011;61705;46.228;24.812;2022-10-30T02:28:42;31.17;;;13.90;;
51260;SDS011;61705;46.228;24.812;2022-10-30T02:31:09;27.88;;;14.45;;
51260;SDS011;61705;46.228;24.812;2022-10-30T02:33:36;37.25;;;14.48;;
51260;SDS011;61705;46.228;24.812;2022-10-30T02:36:02;47.42;;;14.32;;
51260;SDS011;61705;46.228;24.812;2022-10-30T02:38:29;43.85;;;15.73;;
51260;SDS011;61705;46.228;24.812;2022-10-30T02:40:56;34.10;;;13.70;;
51260;SDS011;61705;46.228;24.812;2022-10-30T02:43:24;40.50;;;14.63;;
51260;SDS011;61705;46.228;24.812;2022-10-30T02:45:51;37.85;;;14.68;;
51260;SDS011;61705;46.228;24.812;2022-10-30T02:48:18;39.30;;;16.67;;
51260;SDS011;61705;46.228;24.812;2022-10-30T02:50:44;35.85;;;15.35;;
51260;SDS011;61705;46.228;24.812;2022-10-30T02:53:11;33.70;;;15.02;;
51260;SDS011;61705;46.228;24.812;2022-10-30T02:55:38;40.38;;;14.70;;
51260;SDS011;61705;46.228;24.812;2022-10-30T02:58:04;41.55;;;14.55;;
51260;SDS011;61705;46.228;24.812;2022-10-30T03:00:31;37.15;;;13.02;;
51260;SDS011;61705;46.228;24.812;2022-10-30T03:02:58;52.20;;;14.93;;
51260;SDS011;61705;46.228;24.812;2022-10-30T03:05:24;52.25;;;14.90;;
51260;SDS011;61705;46.228;24.812;2022-10-30T03:07:52;37.80;;;14.88;;
51260;SDS011;61705;46.228;24.812;2022-10-30T03:10:20;47.05;;;15.18;;
51260;SDS011;61705;46.228;24.812;2022-10-30T03:12:47;41.50;;;15.60;;
51260;SDS011;61705;46.228;24.812;2022-10-30T03:15:16;48.53;;;15.05;;
51260;SDS011;61705;46.228;24.812;2022-10-30T03:17:43;46.13;;;14.90;;
51260;SDS011;61705;46.228;24.812;2022-10-30T03:20:12;49.83;;;14.52;;
51260;SDS011;61705;46.228;24.812;2022-10-30T03:22:39;51.80;;;15.45;;
51260;SDS011;61705;46.228;24.812;2022-10-30T03:25:06;61.17;;;16.27;;
51260;SDS011;61705;46.228;24.812;2022-10-30T03:27:32;36.00;;;11.02;;
51260;SDS011;61705;46.228;24.812;2022-10-30T03:29:59;37.78;;;13.70;;
51260;SDS011;61705;46.228;24.812;2022-10-30T03:32:26;42.53;;;13.00;;
51260;SDS011;61705;46.228;24.812;2022-10-30T03:34:52;50.40;;;14.60;;
51260;SDS011;61705;46.228;24.812;2022-10-30T03:37:19;33.85;;;14.00;;
51260;SDS011;61705;46.228;24.812;2022-10-30T03:39:46;36.53;;;13.90;;
51260;SDS011;61705;46.228;24.812;2022-10-30T03:42:12;30.90;;;13.90;;
51260;SDS011;61705;46.228;24.812;2022-10-30T03:44:39;31.25;;;13.73;;
51260;SDS011;61705;46.228;24.812;2022-10-30T03:47:06;34.13;;;13.20;;
51260;SDS011;61705;46.228;24.812;2022-10-30T03:49:32;27.67;;;12.77;;
51260;SDS011;61705;46.228;24.812;2022-10-30T03:51:59;32.67;;;13.77;;
51260;SDS011;61705;46.228;24.812;2022-10-30T03:54:26;29.98;;;13.18;;
51260;SDS011;61705;46.228;24.812;2022-10-30T03:56:52;30.73;;;13.48;;
51260;SDS011;61705;46.228;24.812;2022-10-30T03:59:19;31.05;;;13.65;;
51260;SDS011;61705;46.228;24.812;2022-10-30T04:01:48;38.13;;;13.20;;
51260;SDS011;61705;46.228;24.812;2022-10-30T04:04:15;30.55;;;12.88;;
51260;SDS011;61705;46.228;24.812;2022-10-30T04:06:42;31.98;;;12.60;;
51260;SDS011;61705;46.228;24.812;2022-10-30T04:09:11;41.67;;;12.70;;
51260;SDS011;61705;46.228;24.812;2022-10-30T04:11:40;28.17;;;13.65;;
51260;SDS011;61705;46.228;24.812;2022-10-30T04:14:07;29.33;;;12.30;;
51260;SDS011;61705;46.228;24.812;2022-10-30T04:16:34;29.88;;;13.13;;
51260;SDS011;61705;46.228;24.812;2022-10-30T04:19:00;25.60;;;12.95;;
51260;SDS011;61705;46.228;24.812;2022-10-30T04:21:29;29.88;;;13.45;;
51260;SDS011;61705;46.228;24.812;2022-10-30T04:23:56;32.28;;;13.00;;
51260;SDS011;61705;46.228;24.812;2022-10-30T04:26:23;28.85;;;13.13;;
51260;SDS011;61705;46.228;24.812;2022-10-30T04:28:50;35.42;;;13.60;;
51260;SDS011;61705;46.228;24.812;2022-10-30T04:31:16;28.77;;;12.90;;
51260;SDS011;61705;46.228;24.812;2022-10-30T04:33:43;29.20;;;12.75;;
51260;SDS011;61705;46.228;24.812;2022-10-30T04:36:10;33.20;;;13.60;;
51260;SDS011;61705;46.228;24.812;2022-10-30T04:38:36;31.13;;;13.05;;
51260;SDS011;61705;46.228;24.812;2022-10-30T04:41:03;28.50;;;13.05;;
51260;SDS011;61705;46.228;24.812;2022-10-30T04:43:30;28.33;;;13.52;;
51260;SDS011;61705;46.228;24.812;2022-10-30T04:45:56;31.67;;;13.00;;
51260;SDS011;61705;46.228;24.812;2022-10-30T04:48:23;28.08;;;12.90;;
51260;SDS011;61705;46.228;24.812;2022-10-30T04:50:52;25.35;;;12.57;;
51260;SDS011;61705;46.228;24.812;2022-10-30T04:53:19;32.90;;;12.45;;
51260;SDS011;61705;46.228;24.812;2022-10-30T04:55:46;23.98;;;13.07;;
51260;SDS011;61705;46.228;24.812;2022-10-30T04:58:13;27.90;;;12.02;;
51260;SDS011;61705;46.228;24.812;2022-10-30T05:00:39;27.08;;;12.57;;
51260;SDS011;61705;46.228;24.812;2022-10-30T05:03:08;24.98;;;12.18;;
51260;SDS011;61705;46.228;24.812;2022-10-30T05:05:46;25.67;;;12.50;;
51260;SDS011;61705;46.228;24.812;2022-10-30T05:08:13;25.55;;;12.80;;
51260;SDS011;61705;46.228;24.812;2022-10-30T05:10:40;25.08;;;13.02;;
51260;SDS011;61705;46.228;24.812;2022-10-30T05:13:09;28.13;;;13.05;;
51260;SDS011;61705;46.228;24.812;2022-10-30T05:15:37;23.92;;;11.95;;
51260;SDS011;61705;46.228;24.812;2022-10-30T05:18:08;22.95;;;11.50;;
51260;SDS011;61705;46.228;24.812;2022-10-30T05:20:35;26.75;;;12.68;;
51260;SDS011;61705;46.228;24.812;2022-10-30T05:23:02;24.23;;;12.60;;
51260;SDS011;61705;46.228;24.812;2022-10-30T05:25:29;24.23;;;12.75;;
51260;SDS011;61705;46.228;24.812;2022-10-30T05:28:02;24.40;;;12.73;;
51260;SDS011;61705;46.228;24.812;2022-10-30T05:30:31;29.77;;;14.15;;
51260;SDS011;61705;46.228;24.812;2022-10-30T05:33:00;28.63;;;13.40;;
51260;SDS011;61705;46.228;24.812;2022-10-30T05:35:28;29.67;;;14.88;;
51260;SDS011;61705;46.228;24.812;2022-10-30T05:37:58;29.25;;;13.50;;
51260;SDS011;61705;46.228;24.812;2022-10-30T05:40:27;26.98;;;13.10;;
51260;SDS011;61705;46.228;24.812;2022-10-30T05:42:54;29.05;;;13.45;;
51260;SDS011;61705;46.228;24.812;2022-10-30T05:45:21;32.20;;;14.35;;
51260;SDS011;61705;46.228;24.812;2022-10-30T05:50:28;25.35;;;13.32;;
51260;SDS011;61705;46.228;24.812;2022-10-30T05:52:56;31.75;;;14.02;;
51260;SDS011;61705;46.228;24.812;2022-10-30T05:55:24;28.75;;;13.60;;
51260;SDS011;61705;46.228;24.812;2022-10-30T05:57:55;24.60;;;12.88;;
51260;SDS011;61705;46.228;24.812;2022-10-30T06:00:27;27.40;;;12.00;;
51260;SDS011;61705;46.228;24.812;2022-10-30T06:02:59;24.73;;;13.65;;
51260;SDS011;61705;46.228;24.812;2022-10-30T06:05:31;27.17;;;12.80;;
51260;SDS011;61705;46.228;24.812;2022-10-30T06:08:05;27.00;;;12.50;;
51260;SDS011;61705;46.228;24.812;2022-10-30T06:10:33;24.63;;;12.75;;
51260;SDS011;61705;46.228;24.812;2022-10-30T06:13:00;27.15;;;14.68;;
51260;SDS011;61705;46.228;24.812;2022-10-30T06:15:28;33.58;;;14.20;;
51260;SDS011;61705;46.228;24.812;2022-10-30T06:17:56;28.35;;;14.95;;
51260;SDS011;61705;46.228;24.812;2022-10-30T06:20:25;35.45;;;16.45;;
51260;SDS011;61705;46.228;24.812;2022-10-30T06:22:57;31.35;;;15.75;;
51260;SDS011;61705;46.228;24.812;2022-10-30T06:25:28;37.95;;;15.73;;
51260;SDS011;61705;46.228;24.812;2022-10-30T06:28:03;32.90;;;14.77;;
51260;SDS011;61705;46.228;24.812;2022-10-30T06:30:33;35.88;;;17.25;;
51260;SDS011;61705;46.228;24.812;2022-10-30T06:33:03;38.58;;;17.52;;
51260;SDS011;61705;46.228;24.812;2022-10-30T06:35:33;40.35;;;18.45;;
51260;SDS011;61705;46.228;24.812;2022-10-30T06:38:02;31.38;;;16.42;;
51260;SDS011;61705;46.228;24.812;2022-10-30T06:40:30;33.17;;;16.35;;
51260;SDS011;61705;46.228;24.812;2022-10-30T06:42:57;31.85;;;16.60;;
51260;SDS011;61705;46.228;24.812;2022-10-30T06:45:24;33.05;;;16.10;;
51260;SDS011;61705;46.228;24.812;2022-10-30T06:47:51;29.23;;;15.65;;
51260;SDS011;61705;46.228;24.812;2022-10-30T06:50:20;25.17;;;13.27;;
51260;SDS011;61705;46.228;24.812;2022-10-30T06:52:49;23.00;;;12.63;;
51260;SDS011;61705;46.228;24.812;2022-10-30T06:55:16;23.38;;;12.50;;
51260;SDS011;61705;46.228;24.812;2022-10-30T06:57:43;22.50;;;12.38;;
51260;SDS011;61705;46.228;24.812;2022-10-30T07:00:12;23.65;;;11.90;;
51260;SDS011;61705;46.228;24.812;2022-10-30T07:02:39;24.02;;;11.27;;
51260;SDS011;61705;46.228;24.812;2022-10-30T07:05:05;22.67;;;12.10;;
51260;SDS011;61705;46.228;24.812;2022-10-30T07:07:32;28.02;;;13.80;;
51260;SDS011;61705;46.228;24.812;2022-10-30T07:10:02;22.45;;;11.85;;
51260;SDS011;61705;46.228;24.812;2022-10-30T07:12:29;21.00;;;12.23;;
51260;SDS011;61705;46.228;24.812;2022-10-30T07:14:56;26.27;;;13.30;;
51260;SDS011;61705;46.228;24.812;2022-10-30T07:17:23;21.83;;;12.68;;
51260;SDS011;61705;46.228;24.812;2022-10-30T07:19:53;25.70;;;12.68;;
51260;SDS011;61705;46.228;24.812;2022-10-30T07:22:19;24.25;;;12.45;;
51260;SDS011;61705;46.228;24.812;2022-10-30T07:24:46;21.83;;;12.35;;
51260;SDS011;61705;46.228;24.812;2022-10-30T07:27:15;24.17;;;12.68;;
51260;SDS011;61705;46.228;24.812;2022-10-30T07:29:42;22.88;;;12.23;;
51260;SDS011;61705;46.228;24.812;2022-10-30T07:32:11;28.33;;;12.38;;
51260;SDS011;61705;46.228;24.812;2022-10-30T07:34:38;31.05;;;14.52;;
51260;SDS011;61705;46.228;24.812;2022-10-30T07:37:05;29.65;;;15.63;;
51260;SDS011;61705;46.228;24.812;2022-10-30T07:39:32;30.92;;;14.25;;
51260;SDS011;61705;46.228;24.812;2022-10-30T07:41:59;54.83;;;21.90;;
51260;SDS011;61705;46.228;24.812;2022-10-30T07:44:28;42.78;;;20.25;;
51260;SDS011;61705;46.228;24.812;2022-10-30T07:46:55;53.85;;;25.05;;
51260;SDS011;61705;46.228;24.812;2022-10-30T07:49:22;54.03;;;23.30;;
51260;SDS011;61705;46.228;24.812;2022-10-30T07:51:49;212.68;;;72.93;;
51260;SDS011;61705;46.228;24.812;2022-10-30T07:54:22;54.90;;;23.67;;
51260;SDS011;61705;46.228;24.812;2022-10-30T07:56:50;97.35;;;36.55;;
51260;SDS011;61705;46.228;24.812;2022-10-30T07:59:17;77.90;;;32.42;;
51260;SDS011;61705;46.228;24.812;2022-10-30T08:01:44;63.15;;;28.13;;
51260;SDS011;61705;46.228;24.812;2022-10-30T08:04:10;43.40;;;20.42;;
51260;SDS011;61705;46.228;24.812;2022-10-30T08:06:39;68.90;;;28.60;;
51260;SDS011;61705;46.228;24.812;2022-10-30T08:09:09;87.63;;;34.13;;
51260;SDS011;61705;46.228;24.812;2022-10-30T08:11:36;47.58;;;22.05;;
51260;SDS011;61705;46.228;24.812;2022-10-30T08:14:03;28.20;;;16.00;;
51260;SDS011;61705;46.228;24.812;2022-10-30T08:16:29;47.40;;;21.75;;
51260;SDS011;61705;46.228;24.812;2022-10-30T08:18:56;52.75;;;23.00;;
51260;SDS011;61705;46.228;24.812;2022-10-30T08:21:23;32.85;;;15.90;;
51260;SDS011;61705;46.228;24.812;2022-10-30T08:23:52;128.15;;;43.80;;
51260;SDS011;61705;46.228;24.812;2022-10-30T08:26:27;133.80;;;43.38;;
51260;SDS011;61705;46.228;24.812;2022-10-30T08:28:54;41.08;;;18.33;;
51260;SDS011;61705;46.228;24.812;2022-10-30T08:31:21;45.38;;;20.00;;
51260;SDS011;61705;46.228;24.812;2022-10-30T08:33:47;29.00;;;14.20;;
51260;SDS011;61705;46.228;24.812;2022-10-30T08:36:14;32.22;;;15.63;;
51260;SDS011;61705;46.228;24.812;2022-10-30T08:38:41;24.83;;;12.57;;
51260;SDS011;61705;46.228;24.812;2022-10-30T08:41:07;21.20;;;12.07;;
51260;SDS011;61705;46.228;24.812;2022-10-30T08:43:34;36.30;;;17.13;;
51260;SDS011;61705;46.228;24.812;2022-10-30T08:46:01;37.35;;;15.85;;
51260;SDS011;61705;46.228;24.812;2022-10-30T08:48:28;31.90;;;15.65;;
51260;SDS011;61705;46.228;24.812;2022-10-30T08:50:59;23.75;;;14.23;;
51260;SDS011;61705;46.228;24.812;2022-10-30T08:53:28;24.88;;;13.35;;
51260;SDS011;61705;46.228;24.812;2022-10-30T08:55:55;36.20;;;16.27;;
51260;SDS011;61705;46.228;24.812;2022-10-30T08:58:26;35.70;;;16.58;;
51260;SDS011;61705;46.228;24.812;2022-10-30T09:00:53;32.97;;;15.88;;
51260;SDS011;61705;46.228;24.812;2022-10-30T09:03:30;36.27;;;17.57;;
51260;SDS011;61705;46.228;24.812;2022-10-30T09:06:07;32.85;;;17.23;;
51260;SDS011;61705;46.228;24.812;2022-10-30T09:08:39;29.95;;;16.38;;
51260;SDS011;61705;46.228;24.812;2022-10-30T09:11:13;33.53;;;15.23;;
51260;SDS011;61705;46.228;24.812;2022-10-30T09:13:46;27.35;;;13.85;;
51260;SDS011;61705;46.228;24.812;2022-10-30T09:16:18;25.67;;;13.25;;
51260;SDS011;61705;46.228;24.812;2022-10-30T09:18:46;24.92;;;13.27;;
51260;SDS011;61705;46.228;24.812;2022-10-30T09:21:13;40.17;;;18.42;;
51260;SDS011;61705;46.228;24.812;2022-10-30T09:23:42;36.53;;;16.10;;
51260;SDS011;61705;46.228;24.812;2022-10-30T09:26:09;35.17;;;18.33;;
51260;SDS011;61705;46.228;24.812;2022-10-30T09:28:43;28.90;;;12.57;;
51260;SDS011;61705;46.228;24.812;2022-10-30T09:33:47;21.08;;;12.00;;
51260;SDS011;61705;46.228;24.812;2022-10-30T09:36:17;24.30;;;13.07;;
51260;SDS011;61705;46.228;24.812;2022-10-30T09:38:52;29.80;;;15.07;;
51260;SDS011;61705;46.228;24.812;2022-10-30T09:53:59;22.92;;;13.02;;
51260;SDS011;61705;46.228;24.812;2022-10-30T09:56:51;29.73;;;14.88;;
51260;SDS011;61705;46.228;24.812;2022-10-30T10:07:46;20.50;;;11.65;;
51260;SDS011;61705;46.228;24.812;2022-10-30T10:10:43;18.67;;;9.38;;
51260;SDS011;61705;46.228;24.812;2022-10-30T10:13:15;22.90;;;10.82;;
51260;SDS011;61705;46.228;24.812;2022-10-30T10:16:12;14.55;;;8.55;;
51260;SDS011;61705;46.228;24.812;2022-10-30T10:18:46;19.52;;;9.27;;
51260;SDS011;61705;46.228;24.812;2022-10-30T10:21:36;18.48;;;9.30;;
51260;SDS011;61705;46.228;24.812;2022-10-30T10:24:18;20.30;;;9.98;;
51260;SDS011;61705;46.228;24.812;2022-10-30T10:26:52;16.40;;;10.07;;
51260;SDS011;61705;46.228;24.812;2022-10-30T10:29:33;21.98;;;10.27;;
51260;SDS011;61705;46.228;24.812;2022-10-30T10:43:34;19.67;;;11.50;;
51260;SDS011;61705;46.228;24.812;2022-10-30T10:46:17;18.88;;;9.85;;
51260;SDS011;61705;46.228;24.812;2022-10-30T10:54:33;18.30;;;10.10;;
51260;SDS011;61705;46.228;24.812;2022-10-30T10:57:15;22.45;;;11.88;;
51260;SDS011;61705;46.228;24.812;2022-10-30T10:59:57;18.40;;;11.32;;
51260;SDS011;61705;46.228;24.812;2022-10-30T18:48:55;38.55;;;20.95;;
51260;SDS011;61705;46.228;24.812;2022-10-30T18:51:23;35.58;;;19.42;;
51260;SDS011;61705;46.228;24.812;2022-10-30T18:53:51;32.28;;;17.90;;
51260;SDS011;61705;46.228;24.812;2022-10-30T18:56:24;37.88;;;18.45;;
51260;SDS011;61705;46.228;24.812;2022-10-30T18:58:53;34.92;;;17.77;;
51260;SDS011;61705;46.228;24.812;2022-10-30T19:01:28;33.38;;;18.27;;
51260;SDS011;61705;46.228;24.812;2022-10-30T19:03:56;34.45;;;18.80;;
51260;SDS011;61705;46.228;24.812;2022-10-30T19:06:26;74.20;;;44.60;;
51260;SDS011;61705;46.228;24.812;2022-10-30T19:08:53;33.15;;;17.17;;
51260;SDS011;61705;46.228;24.812;2022-10-30T19:11:20;47.25;;;23.80;;
51260;SDS011;61705;46.228;24.812;2022-10-30T19:13:51;42.03;;;21.08;;
51260;SDS011;61705;46.228;24.812;2022-10-30T19:16:18;38.60;;;21.80;;
51260;SDS011;61705;46.228;24.812;2022-10-30T19:18:46;40.53;;;19.40;;
51260;SDS011;61705;46.228;24.812;2022-10-30T19:21:17;37.30;;;20.17;;
51260;SDS011;61705;46.228;24.812;2022-10-30T19:23:46;48.47;;;23.92;;
51260;SDS011;61705;46.228;24.812;2022-10-30T19:26:13;38.25;;;21.27;;
51260;SDS011;61705;46.228;24.812;2022-10-30T19:28:41;37.60;;;19.63;;
51260;SDS011;61705;46.228;24.812;2022-10-30T19:31:12;44.70;;;23.08;;
51260;SDS011;61705;46.228;24.812;2022-10-30T19:33:41;35.03;;;18.73;;
51260;SDS011;61705;46.228;24.812;2022-10-30T19:39:03;34.15;;;18.15;;
51260;SDS011;61705;46.228;24.812;2022-10-30T19:41:38;36.50;;;17.38;;
51260;SDS011;61705;46.228;24.812;2022-10-30T19:44:06;34.33;;;17.88;;
51260;SDS011;61705;46.228;24.812;2022-10-30T19:46:33;32.83;;;17.75;;
51260;SDS011;61705;46.228;24.812;2022-10-30T19:49:17;36.20;;;19.00;;
51260;SDS011;61705;46.228;24.812;2022-10-30T19:51:45;33.70;;;18.25;;
51260;SDS011;61705;46.228;24.812;2022-10-30T19:54:12;39.35;;;19.38;;
51260;SDS011;61705;46.228;24.812;2022-10-30T19:56:38;35.40;;;19.25;;
51260;SDS011;61705;46.228;24.812;2022-10-30T19:59:08;36.88;;;18.92;;
51260;SDS011;61705;46.228;24.812;2022-10-30T20:01:36;37.78;;;19.92;;
51260;SDS011;61705;46.228;24.812;2022-10-30T20:04:03;37.25;;;19.80;;
51260;SDS011;61705;46.228;24.812;2022-10-30T20:06:30;36.15;;;19.23;;
51260;SDS011;61705;46.228;24.812;2022-10-30T20:08:57;36.58;;;18.77;;
51260;SDS011;61705;46.228;24.812;2022-10-30T20:11:25;36.45;;;19.77;;
51260;SDS011;61705;46.228;24.812;2022-10-30T20:13:53;37.38;;;19.65;;
51260;SDS011;61705;46.228;24.812;2022-10-30T20:16:20;36.70;;;19.73;;
51260;SDS011;61705;46.228;24.812;2022-10-30T20:18:46;37.42;;;18.92;;
51260;SDS011;61705;46.228;24.812;2022-10-30T20:21:13;38.20;;;19.33;;
51260;SDS011;61705;46.228;24.812;2022-10-30T20:23:40;40.10;;;20.48;;
51260;SDS011;61705;46.228;24.812;2022-10-30T20:26:23;35.65;;;18.92;;
51260;SDS011;61705;46.228;24.812;2022-10-30T20:28:53;50.88;;;21.10;;
51260;SDS011;61705;46.228;24.812;2022-10-30T20:31:20;42.10;;;21.73;;
51260;SDS011;61705;46.228;24.812;2022-10-30T20:33:47;40.88;;;20.10;;
51260;SDS011;61705;46.228;24.812;2022-10-30T20:36:16;38.03;;;18.90;;
51260;SDS011;61705;46.228;24.812;2022-10-30T20:38:43;39.17;;;20.30;;
51260;SDS011;61705;46.228;24.812;2022-10-30T20:41:17;37.05;;;19.85;;
51260;SDS011;61705;46.228;24.812;2022-10-30T20:43:48;42.70;;;19.75;;
51260;SDS011;61705;46.228;24.812;2022-10-30T20:46:16;41.67;;;20.30;;
51260;SDS011;61705;46.228;24.812;2022-10-30T20:48:43;42.78;;;21.08;;
51260;SDS011;61705;46.228;24.812;2022-10-30T20:51:10;39.45;;;20.00;;
51260;SDS011;61705;46.228;24.812;2022-10-30T20:53:40;36.22;;;19.05;;
51260;SDS011;61705;46.228;24.812;2022-10-30T20:56:06;36.80;;;19.80;;
51260;SDS011;61705;46.228;24.812;2022-10-30T20:58:33;39.35;;;19.58;;
51260;SDS011;61705;46.228;24.812;2022-10-30T21:01:00;37.53;;;18.70;;
51260;SDS011;61705;46.228;24.812;2022-10-30T21:03:26;42.10;;;19.88;;
51260;SDS011;61705;46.228;24.812;2022-10-30T21:05:57;37.05;;;19.23;;
51260;SDS011;61705;46.228;24.812;2022-10-30T21:08:25;38.53;;;19.77;;
51260;SDS011;61705;46.228;24.812;2022-10-30T21:11:00;40.55;;;20.90;;
51260;SDS011;61705;46.228;24.812;2022-10-30T21:13:28;39.65;;;19.60;;
51260;SDS011;61705;46.228;24.812;2022-10-30T21:15:59;41.90;;;21.35;;
51260;SDS011;61705;46.228;24.812;2022-10-30T21:18:27;45.47;;;22.45;;
51260;SDS011;61705;46.228;24.812;2022-10-30T21:20:58;41.05;;;19.70;;
51260;SDS011;61705;46.228;24.812;2022-10-30T21:23:28;43.22;;;20.58;;
51260;SDS011;61705;46.228;24.812;2022-10-30T21:26:01;38.97;;;20.10;;
51260;SDS011;61705;46.228;24.812;2022-10-30T21:28:30;42.28;;;20.05;;
51260;SDS011;61705;46.228;24.812;2022-10-30T21:31:00;44.60;;;21.20;;
51260;SDS011;61705;46.228;24.812;2022-10-30T21:33:28;39.70;;;20.20;;
51260;SDS011;61705;46.228;24.812;2022-10-30T21:35:56;40.80;;;20.15;;
51260;SDS011;61705;46.228;24.812;2022-10-30T21:38:23;44.67;;;20.63;;
51260;SDS011;61705;46.228;24.812;2022-10-30T21:40:53;43.63;;;20.70;;
51260;SDS011;61705;46.228;24.812;2022-10-30T21:43:21;45.53;;;20.60;;
51260;SDS011;61705;46.228;24.812;2022-10-30T21:45:47;48.83;;;20.95;;
51260;SDS011;61705;46.228;24.812;2022-10-30T21:48:14;46.60;;;21.70;;
51260;SDS011;61705;46.228;24.812;2022-10-30T21:50:41;45.13;;;21.80;;
51260;SDS011;61705;46.228;24.812;2022-10-30T21:53:08;50.67;;;24.40;;
51260;SDS011;61705;46.228;24.812;2022-10-30T21:55:38;45.33;;;21.35;;
51260;SDS011;61705;46.228;24.812;2022-10-30T21:58:05;42.97;;;20.25;;
51260;SDS011;61705;46.228;24.812;2022-10-30T22:00:32;47.28;;;22.45;;
51260;SDS011;61705;46.228;24.812;2022-10-30T22:02:58;47.65;;;21.70;;
51260;SDS011;61705;46.228;24.812;2022-10-30T22:05:25;48.50;;;21.70;;
51260;SDS011;61705;46.228;24.812;2022-10-30T22:07:52;46.13;;;22.40;;
51260;SDS011;61705;46.228;24.812;2022-10-30T22:10:19;47.97;;;21.55;;
51260;SDS011;61705;46.228;24.812;2022-10-30T22:12:45;44.95;;;21.13;;
51260;SDS011;61705;46.228;24.812;2022-10-30T22:15:12;47.53;;;21.83;;
51260;SDS011;61705;46.228;24.812;2022-10-30T22:17:38;47.65;;;21.80;;
51260;SDS011;61705;46.228;24.812;2022-10-30T22:20:05;48.30;;;22.58;;
51260;SDS011;61705;46.228;24.812;2022-10-30T22:22:33;49.35;;;22.50;;
51260;SDS011;61705;46.228;24.812;2022-10-30T22:24:59;44.85;;;20.90;;
51260;SDS011;61705;46.228;24.812;2022-10-30T22:27:26;46.80;;;22.88;;
51260;SDS011;61705;46.228;24.812;2022-10-30T22:29:52;45.72;;;20.90;;
51260;SDS011;61705;46.228;24.812;2022-10-30T22:32:19;50.33;;;21.63;;
51260;SDS011;61705;46.228;24.812;2022-10-30T22:34:48;52.63;;;20.35;;
51260;SDS011;61705;46.228;24.812;2022-10-30T22:37:14;46.70;;;21.13;;
51260;SDS011;61705;46.228;24.812;2022-10-30T22:39:41;43.63;;;19.75;;
51260;SDS011;61705;46.228;24.812;2022-10-30T22:42:08;39.22;;;16.75;;
51260;SDS011;61705;46.228;24.812;2022-10-30T22:44:34;39.47;;;17.90;;
51260;SDS011;61705;46.228;24.812;2022-10-30T22:47:01;43.03;;;19.60;;
51260;SDS011;61705;46.228;24.812;2022-10-30T22:49:28;42.70;;;18.90;;
51260;SDS011;61705;46.228;24.812;2022-10-30T22:51:54;48.45;;;20.13;;
51260;SDS011;61705;46.228;24.812;2022-10-30T22:54:21;53.78;;;20.75;;
51260;SDS011;61705;46.228;24.812;2022-10-30T22:56:48;46.28;;;21.27;;
51260;SDS011;61705;46.228;24.812;2022-10-30T22:59:14;46.85;;;21.38;;
51260;SDS011;61705;46.228;24.812;2022-10-30T23:01:41;48.17;;;20.95;;
51260;SDS011;61705;46.228;24.812;2022-10-30T23:04:09;47.20;;;21.85;;
51260;SDS011;61705;46.228;24.812;2022-10-30T23:06:37;46.20;;;20.50;;
51260;SDS011;61705;46.228;24.812;2022-10-30T23:09:06;56.10;;;22.92;;
51260;SDS011;61705;46.228;24.812;2022-10-30T23:11:35;48.47;;;21.73;;
51260;SDS011;61705;46.228;24.812;2022-10-30T23:14:02;47.50;;;21.60;;
51260;SDS011;61705;46.228;24.812;2022-10-30T23:16:29;59.92;;;22.40;;
51260;SDS011;61705;46.228;24.812;2022-10-30T23:18:56;61.38;;;25.35;;
51260;SDS011;61705;46.228;24.812;2022-10-30T23:21:25;45.35;;;20.73;;
51260;SDS011;61705;46.228;24.812;2022-10-30T23:23:53;47.15;;;21.45;;
51260;SDS011;61705;46.228;24.812;2022-10-30T23:26:25;50.97;;;22.55;;